Dades meteomassalio
Diari Summary for Diciembre 2, 2017 Units:  Metric    English   Both
« Previous Day
Next Day »
Diari Semanal Mensual Anual Personalitzat
  Maxima: Minima: Mijana:
Temperatura: -17.8 °C -17.2 °C -15.9 °C
Rosada: -17.8 °C -21.1 °C -19.6 °C
Humitat: Humidity % 36 % 63 %
Velocitat del vent: 0 km/h 35.7 km/h 63.2 km/h
Racha vent: 0 km/h - -
Vent:- - WNW
Pressio: 0 hPa 34510.1 hPa -
Pluja: 0 mm    
Historical Graphs
 
 
Tabular Data for Diciembre 2, 2017
Time Temperature Dew Point Pressure Wind Wind Speed Wind Gust Humidity Rainfall Rate (Hourly) solar Conditions
-17.8 °C -17.8 °C 0 hPa Calm     Humidity % 0 mm SolarRadiationWatts/m^2 W/m2 Conditions
00:07 -16.8 °C -19.2 °C 34591.4 hPa NW 80.5 km/h 80.5 km/h 74 % 0 mm 0.0 W/m2 CLR
00:12 -16.6 °C -18.8 °C 34577.8 hPa NNW 74.5 km/h 74.5 km/h 74 % 0 mm 0.0 W/m2 CLR
00:18 -16.6 °C -18.8 °C 34591.4 hPa NW 50.7 km/h 50.7 km/h 74 % 0 mm 0.0 W/m2 CLR
00:23 -16.6 °C -18.8 °C 34577.8 hPa NNW 65.5 km/h 65.5 km/h 74 % 0 mm 0.0 W/m2 CLR
00:28 -16.6 °C -18.8 °C 34577.8 hPa NNW 72.6 km/h 72.6 km/h 74 % 0 mm 0.0 W/m2 CLR
00:33 -16.8 °C -19.2 °C 34577.8 hPa NNW 54.4 km/h 54.4 km/h 74 % 0 mm 0.0 W/m2 CLR
00:43 -16.8 °C -19.1 °C 34577.8 hPa NW 56.6 km/h 56.6 km/h 75 % 0 mm 0.0 W/m2 CLR
00:48 -16.8 °C -19.2 °C 34577.8 hPa NW 50.7 km/h 50.7 km/h 74 % 0 mm 0.0 W/m2 CLR
00:58 -16.8 °C -19.1 °C 34577.8 hPa NNW 68.6 km/h 68.6 km/h 75 % 0 mm 0.0 W/m2 CLR
01:03 -16.8 °C -19.2 °C 34577.8 hPa NNW 59.5 km/h 59.5 km/h 74 % 0 mm 0.0 W/m2 CLR
01:08 -16.8 °C -19.2 °C 34577.8 hPa North 50.7 km/h 50.7 km/h 74 % 0 mm 0.0 W/m2 CLR
01:13 -16.8 °C -19.2 °C 34577.8 hPa NNW 38.8 km/h 38.8 km/h 74 % 0 mm 0.0 W/m2 CLR
01:18 -16.8 °C -19.2 °C 34591.4 hPa NW 53.6 km/h 53.6 km/h 74 % 0 mm 0.0 W/m2 CLR
01:23 -16.8 °C -19.2 °C 34591.4 hPa NW 50.7 km/h 50.7 km/h 74 % 0 mm 0.0 W/m2 CLR
01:28 -16.8 °C -19.2 °C 34577.8 hPa NNW 53.6 km/h 53.6 km/h 74 % 0 mm 0.0 W/m2 CLR
01:33 -16.8 °C -19.2 °C 34577.8 hPa NW 38.8 km/h 38.8 km/h 74 % 0 mm 0.0 W/m2 CLR
01:43 -16.6 °C -18.8 °C 34577.8 hPa North 68.6 km/h 68.6 km/h 74 % 0 mm 0.0 W/m2 CLR
01:53 -16.6 °C -18.8 °C 34577.8 hPa NNW 59.5 km/h 59.5 km/h 75 % 0 mm 0.0 W/m2 CLR
01:58 -16.6 °C -18.8 °C 34577.8 hPa NNW 56.6 km/h 56.6 km/h 75 % 0 mm 0.0 W/m2 CLR
02:03 -16.6 °C -18.8 °C 34577.8 hPa NNW 41.7 km/h 41.7 km/h 74 % 0 mm 0.0 W/m2 CLR
02:08 -16.6 °C -18.8 °C 34577.8 hPa NNW 47.6 km/h 47.6 km/h 75 % 0 mm 0.0 W/m2 CLR
02:13 -16.6 °C -18.8 °C 34577.8 hPa NNW 49.2 km/h 49.2 km/h 75 % 0 mm 0.0 W/m2 CLR
02:18 -16.6 °C -18.8 °C 34577.8 hPa NW 35.7 km/h 35.7 km/h 75 % 0 mm 0.0 W/m2 CLR
02:23 -16.8 °C -19.1 °C 34577.8 hPa NNW 47.6 km/h 47.6 km/h 75 % 0 mm 0.0 W/m2 CLR
02:28 -16.6 °C -18.8 °C 34577.8 hPa NNW 36.2 km/h 36.2 km/h 75 % 0 mm 0.0 W/m2 CLR
02:33 -16.6 °C -18.7 °C 34577.8 hPa NNW 56.6 km/h 56.6 km/h 76 % 0 mm 0.0 W/m2 CLR
02:38 -16.6 °C -18.7 °C 34577.8 hPa NNW 47.6 km/h 47.6 km/h 76 % 0 mm 0.0 W/m2 CLR
02:43 -16.6 °C -18.7 °C 34577.8 hPa NNW 62.6 km/h 62.6 km/h 76 % 0 mm 0.0 W/m2 CLR
02:53 -16.6 °C -18.6 °C 34567.7 hPa NNW 41.7 km/h 41.7 km/h 77 % 0 mm 0.0 W/m2 CLR
03:03 -16.6 °C -18.6 °C 34567.7 hPa NNW 65.5 km/h 65.5 km/h 77 % 0 mm 0.0 W/m2 CLR
03:08 -16.6 °C -18.4 °C 34567.7 hPa NNW 47.6 km/h 48.1 km/h 78 % 0 mm 0.0 W/m2 CLR
03:13 -16.6 °C -18.4 °C 34567.7 hPa NNW 65.5 km/h 65.5 km/h 78 % 0 mm 0.0 W/m2 CLR
03:18 -16.6 °C -18.6 °C 34567.7 hPa NNW 54.4 km/h 54.4 km/h 77 % 0 mm 0.0 W/m2 CLR
03:23 -16.6 °C -18.6 °C 34554.1 hPa NNW 53.6 km/h 53.6 km/h 77 % 0 mm 0.0 W/m2 CLR
03:28 -16.6 °C -18.4 °C 34554.1 hPa North 62.6 km/h 62.6 km/h 78 % 0 mm 0.0 W/m2 CLR
03:33 -16.6 °C -18.6 °C 34554.1 hPa North 62.6 km/h 62.6 km/h 77 % 0 mm 0.0 W/m2 CLR
03:39 -16.6 °C -18.6 °C 34554.1 hPa North 65.5 km/h 65.5 km/h 77 % 0 mm 0.0 W/m2 CLR
03:44 -16.2 °C -18.2 °C 34554.1 hPa NNW 65.5 km/h 65.5 km/h 77 % 0 mm 0.0 W/m2 CLR
03:49 -16.2 °C -18.2 °C 34554.1 hPa North 57 km/h 57 km/h 77 % 0 mm 0.0 W/m2 CLR
03:50 -16.2 °C -18.2 °C 34554.1 hPa North 50.7 km/h 50.7 km/h 77 % 0 mm 0.0 W/m2 CLR
04:00 -16.6 °C -18.4 °C 34554.1 hPa North 67.3 km/h 67.3 km/h 78 % 0 mm 0.0 W/m2 CLR
04:05 -16.6 °C -18.4 °C 34554.1 hPa North 50.7 km/h 50.7 km/h 79 % 0 mm 0.0 W/m2 CLR
04:10 -16.6 °C -18.3 °C 34544 hPa NNW 67.3 km/h 67.3 km/h 80 % 0 mm 0.0 W/m2 CLR
04:15 -16.6 °C -18.3 °C 34544 hPa NNW 64.7 km/h 64.7 km/h 80 % 0 mm 0.0 W/m2 CLR
04:20 -16.6 °C -18.3 °C 34544 hPa NW 68.6 km/h 68.6 km/h 80 % 0 mm 0.0 W/m2 CLR
04:24 -16.6 °C -18.3 °C 34544 hPa NNW 56.6 km/h 56.6 km/h 80 % 0 mm 0.0 W/m2 CLR
04:25 -16.6 °C -18.2 °C 34544 hPa NW 59.5 km/h 59.5 km/h 81 % 0 mm 0.0 W/m2 CLR
04:27 -16.6 °C -18.2 °C 34544 hPa NNW 69.8 km/h 69.8 km/h 81 % 0 mm 0.0 W/m2 CLR
04:30 -16.6 °C -18.2 °C 34544 hPa NNW 77.4 km/h 77.4 km/h 81 % 0 mm 0.0 W/m2 CLR
04:35 -16.6 °C -18.2 °C 34544 hPa NW 56.6 km/h 56.6 km/h 81 % 0 mm 0.0 W/m2 CLR
04:40 -16.6 °C -18.2 °C 34533.8 hPa NNW 68.6 km/h 68.6 km/h 81 % 0 mm 0.0 W/m2 CLR
04:45 -16.8 °C -18.4 °C 34544 hPa NNW 57 km/h 57 km/h 81 % 0 mm 0.0 W/m2 CLR
04:50 -16.6 °C -18.3 °C 34544 hPa NNW 54.4 km/h 54.4 km/h 80 % 0 mm 0.0 W/m2 CLR
04:55 -16.6 °C -18.3 °C 34533.8 hPa NNW 62.6 km/h 62.6 km/h 80 % 0 mm 0.0 W/m2 CLR
05:00 -16.6 °C -18.3 °C 34544 hPa NNW 68.6 km/h 68.6 km/h 80 % 0 mm 0.0 W/m2 CLR
05:05 -16.6 °C -18.3 °C 34544 hPa North 62.6 km/h 62.6 km/h 80 % 0 mm 0.0 W/m2 CLR
05:10 -16.6 °C -18.3 °C 34544 hPa NNW 62.6 km/h 62.6 km/h 80 % 0 mm 0.0 W/m2 CLR
05:20 -16.6 °C -18.3 °C 34544 hPa North 50.7 km/h 50.7 km/h 80 % 0 mm 0.0 W/m2 CLR
05:30 -16.6 °C -18.3 °C 34544 hPa NNW 47.6 km/h 47.6 km/h 80 % 0 mm 0.0 W/m2 CLR
05:35 -16.6 °C -18.3 °C 34544 hPa North 65.5 km/h 65.5 km/h 80 % 0 mm 0.0 W/m2 CLR
05:40 -16.6 °C -18.3 °C 34544 hPa NNW 68.6 km/h 68.6 km/h 80 % 0 mm 0.0 W/m2 CLR
05:45 -16.6 °C -18.3 °C 34554.1 hPa North 44.7 km/h 44.7 km/h 80 % 0 mm 0.0 W/m2 CLR
05:50 -16.6 °C -18.3 °C 34554.1 hPa North 62.6 km/h 62.6 km/h 80 % 0 mm 0.0 W/m2 CLR
05:55 -16.6 °C -18.4 °C 34544 hPa NNW 56.6 km/h 56.6 km/h 79 % 0 mm 0.0 W/m2 CLR
06:05 -16.6 °C -18.4 °C 34544 hPa NNW 68.6 km/h 68.6 km/h 79 % 0 mm 0.0 W/m2 CLR
06:10 -16.6 °C -18.4 °C 34544 hPa NW 50.7 km/h 50.7 km/h 79 % 0 mm 0.0 W/m2 CLR
06:15 -16.6 °C -18.4 °C 34544 hPa North 53.6 km/h 53.6 km/h 79 % 0 mm 0.0 W/m2 CLR
06:20 -16.6 °C -18.4 °C 34544 hPa North 77.4 km/h 77.4 km/h 78 % 0 mm 0.0 W/m2 CLR
06:25 -16.6 °C -18.4 °C 34544 hPa NW 50.7 km/h 50.7 km/h 78 % 0 mm 0.0 W/m2 CLR
06:30 -16.6 °C -18.4 °C 34544 hPa NNW 92.4 km/h 92.4 km/h 78 % 0 mm 0.0 W/m2 CLR
06:35 -16.6 °C -18.6 °C 34544 hPa NNW 74.5 km/h 74.5 km/h 77 % 0 mm 0.0 W/m2 CLR
06:40 -16.6 °C -18.6 °C 34544 hPa North 69.8 km/h 69.8 km/h 77 % 0 mm 0.0 W/m2 CLR
06:45 -16.6 °C -18.6 °C 34544 hPa North 65.5 km/h 65.5 km/h 77 % 0 mm 0.0 W/m2 CLR
06:50 -16.6 °C -18.6 °C 34544 hPa North 90.6 km/h 90.6 km/h 77 % 0 mm 0.0 W/m2 CLR
06:55 -16.6 °C -18.7 °C 34554.1 hPa NNW 77.4 km/h 77.4 km/h 76 % 0 mm 0.0 W/m2 CLR
07:00 -16.6 °C -18.7 °C 34554.1 hPa North 74.5 km/h 74.5 km/h 76 % 0 mm 0.0 W/m2 CLR
07:05 -16.6 °C -18.7 °C 34554.1 hPa North 71.5 km/h 71.5 km/h 76 % 0 mm 0.0 W/m2 CLR
07:20 -16.6 °C -18.7 °C 34554.1 hPa NNW 62.6 km/h 62.6 km/h 76 % 0 mm 0.0 W/m2 CLR
07:25 -16.8 °C -19.1 °C 34554.1 hPa North 56.6 km/h 56.6 km/h 75 % 0 mm 0.0 W/m2 CLR
07:30 -16.6 °C -18.8 °C 34554.1 hPa NNW 72.6 km/h 72.6 km/h 75 % 0 mm 0.0 W/m2 CLR
07:35 -16.8 °C -19.1 °C 34554.1 hPa NNW 65.5 km/h 65.5 km/h 75 % 0 mm 0.0 W/m2 CLR
07:40 -16.6 °C -18.8 °C 34554.1 hPa North 74.5 km/h 74.5 km/h 75 % 0 mm 0.0 W/m2 CLR
07:45 -16.8 °C -19.1 °C 34567.7 hPa NNW 59.5 km/h 59.5 km/h 75 % 0 mm 0.0 W/m2 CLR
07:50 -16.8 °C -19.2 °C 34567.7 hPa North 64.7 km/h 64.7 km/h 74 % 0 mm 0.0 W/m2 CLR
08:05 -16.8 °C -19.2 °C 34567.7 hPa North 75.2 km/h 75.2 km/h 74 % 0 mm 5.0 W/m2 OVC
08:10 -16.8 °C -19.2 °C 34577.8 hPa NNW 77.4 km/h 77.4 km/h 74 % 0 mm 7.0 W/m2 BKN
08:15 -16.8 °C -19.2 °C 34577.8 hPa NNW 67.3 km/h 67.3 km/h 74 % 0 mm 9.0 W/m2 BKN
08:20 -16.8 °C -19.2 °C 34567.7 hPa NNW 65.5 km/h 65.5 km/h 74 % 0 mm 11.0 W/m2 BKN
08:35 -16.8 °C -19.3 °C 34577.8 hPa North 68.6 km/h 68.6 km/h 73 % 0 mm 19.0 W/m2 BKN
08:41 -16.8 °C -19.3 °C 34577.8 hPa NNW 71.5 km/h 71.5 km/h 72 % 0 mm 28.0 W/m2 BKN
08:51 -16.8 °C -19.3 °C 34577.8 hPa NNW 71.5 km/h 71.5 km/h 72 % 0 mm 42.0 W/m2 SCT
09:01 -16.8 °C -19.5 °C 34577.8 hPa NW 65.5 km/h 65.5 km/h 71 % 0 mm 72.0 W/m2 FEW
09:06 -16.6 °C -19.3 °C 34591.4 hPa NNW 71.5 km/h 71.5 km/h 70 % 0 mm 72.0 W/m2 SCT
09:11 -16.6 °C -19.3 °C 34591.4 hPa NNW 71.5 km/h 71.5 km/h 70 % 0 mm 91.0 W/m2 FEW
09:16 -16.6 °C -19.4 °C 34591.4 hPa North 56.6 km/h 56.6 km/h 69 % 0 mm 95.0 W/m2 CLR
09:21 -16.6 °C -19.4 °C 34591.4 hPa NNW 65.5 km/h 65.5 km/h 69 % 0 mm 81.0 W/m2 CLR
09:31 -16.6 °C -19.5 °C 34591.4 hPa North 86.4 km/h 86.4 km/h 68 % 0 mm 155.0 W/m2 CLR
09:36 -16.6 °C -19.6 °C 34591.4 hPa NNW 65.5 km/h 65.5 km/h 67 % 0 mm 142.0 W/m2 CLR
09:41 -16.6 °C -19.6 °C 34591.4 hPa North 62.6 km/h 62.6 km/h 67 % 0 mm 183.0 W/m2 CLR
09:46 -16.6 °C -19.7 °C 34577.8 hPa NW 68.6 km/h 68.6 km/h 66 % 0 mm 197.0 W/m2 CLR
09:51 -16.2 °C -19.6 °C 34577.8 hPa North 75.2 km/h 75.2 km/h 65 % 0 mm 142.0 W/m2 CLR
10:01 -16.2 °C -19.7 °C 34577.8 hPa NNW 59.5 km/h 59.5 km/h 64 % 0 mm 183.0 W/m2 CLR
10:06 -16.2 °C -19.8 °C 34577.8 hPa NNW 89.3 km/h 89.3 km/h 63 % 0 mm 251.0 W/m2 CLR
10:11 -16.2 °C -19.9 °C 34577.8 hPa NNW 77.4 km/h 77.4 km/h 62 % 0 mm 264.0 W/m2 CLR
10:16 -15.9 °C -19.7 °C 34577.8 hPa North 101.2 km/h 101.2 km/h 61 % 0 mm 274.0 W/m2 CLR
10:21 -15.9 °C -19.7 °C 34577.8 hPa NNW 71.5 km/h 71.5 km/h 61 % 0 mm 285.0 W/m2 CLR
10:26 -15.9 °C -19.9 °C 34567.7 hPa North 72.6 km/h 72.6 km/h 59 % 0 mm 297.0 W/m2 CLR
10:31 -15.9 °C -20.1 °C 34567.7 hPa NNW 89.3 km/h 89.3 km/h 58 % 0 mm 308.0 W/m2 CLR
10:36 -15.9 °C -20.1 °C 34577.8 hPa NNW 68.6 km/h 68.6 km/h 58 % 0 mm 316.0 W/m2 CLR
10:41 -15.9 °C -20.2 °C 34577.8 hPa North 65.5 km/h 65.5 km/h 57 % 0 mm 325.0 W/m2 CLR
10:51 -15.6 °C -20.2 °C 34591.4 hPa North 86.4 km/h 86.4 km/h 55 % 0 mm 343.0 W/m2 CLR
10:56 -15.6 °C -20.2 °C 34591.4 hPa NW 80.5 km/h 80.5 km/h 55 % 0 mm 352.0 W/m2 CLR
11:01 -15.6 °C -20.3 °C 34577.8 hPa NNW 65.5 km/h 65.5 km/h 54 % 0 mm 359.0 W/m2 CLR
11:06 -15.3 °C -20.1 °C 34591.4 hPa North 75.2 km/h 75.2 km/h 54 % 0 mm 366.0 W/m2 CLR
11:11 -15.3 °C -20.1 °C 34591.4 hPa NNW 62.1 km/h 62.1 km/h 54 % 0 mm 373.0 W/m2 CLR
11:16 -15.3 °C -20.2 °C 34591.4 hPa North 67.3 km/h 67.3 km/h 53 % 0 mm 380.0 W/m2 CLR
11:21 -15.3 °C -20.1 °C 34591.4 hPa NW 69.8 km/h 69.8 km/h 54 % 0 mm 385.0 W/m2 CLR
11:26 -15.3 °C -20.3 °C 34601.5 hPa North 68.6 km/h 68.6 km/h 52 % 0 mm 394.0 W/m2 CLR
11:36 -15 °C -20.2 °C 34601.5 hPa North 71.5 km/h 71.5 km/h 51 % 0 mm 404.0 W/m2 CLR
11:41 -15 °C -20.2 °C 34591.4 hPa North 77.4 km/h 77.4 km/h 51 % 0 mm 411.0 W/m2 CLR
11:46 -15 °C -20.2 °C 34591.4 hPa North 83.4 km/h 83.4 km/h 51 % 0 mm 415.0 W/m2 CLR
11:51 -15 °C -20.3 °C 34591.4 hPa North 89.3 km/h 89.3 km/h 50 % 0 mm 422.0 W/m2 CLR
11:56 -15 °C -20.3 °C 34577.8 hPa North 72.6 km/h 72.6 km/h 50 % 0 mm 427.0 W/m2 CLR
12:01 -15 °C -20.3 °C 34577.8 hPa North 68.6 km/h 68.6 km/h 50 % 0 mm 429.0 W/m2 CLR
12:06 -14.7 °C -20.1 °C 34591.4 hPa North 77.4 km/h 77.4 km/h 50 % 0 mm 431.0 W/m2 CLR
12:16 -14.7 °C -20.2 °C 34591.4 hPa NNE 83.4 km/h 83.4 km/h 49 % 0 mm 441.0 W/m2 CLR
12:21 -14.7 °C -20.3 °C 34577.8 hPa NNW 83.4 km/h 83.4 km/h 48 % 0 mm 445.0 W/m2 CLR
12:31 -14.7 °C -20.2 °C 34577.8 hPa North 83.4 km/h 83.4 km/h 49 % 0 mm 446.0 W/m2 CLR
12:36 -14.7 °C -20.3 °C 34577.8 hPa North 71.5 km/h 71.5 km/h 48 % 0 mm 446.0 W/m2 CLR
12:41 -14.7 °C -20.3 °C 34577.8 hPa NNW 75.2 km/h 75.2 km/h 48 % 0 mm 446.0 W/m2 CLR
12:51 -14.4 °C -20.1 °C 34577.8 hPa NNW 86.4 km/h 86.4 km/h 48 % 0 mm 450.0 W/m2 CLR
12:56 -14.4 °C -20.1 °C 34577.8 hPa North 69.8 km/h 69.8 km/h 48 % 0 mm 445.0 W/m2 CLR
13:06 -14.4 °C -20.4 °C 34567.7 hPa North 77.4 km/h 77.4 km/h 46 % 0 mm 445.0 W/m2 CLR
13:11 -14.4 °C -20.4 °C 34554.1 hPa North 88 km/h 88 km/h 46 % 0 mm 445.0 W/m2 CLR
13:16 -14.4 °C -20.4 °C 34554.1 hPa North 74.5 km/h 74.5 km/h 46 % 0 mm 443.0 W/m2 CLR
13:22 -14.1 °C -20.2 °C 34554.1 hPa North 77.4 km/h 77.4 km/h 45 % 0 mm 441.0 W/m2 CLR
13:27 -14.1 °C -20.2 °C 34544 hPa NNE 74.5 km/h 74.5 km/h 45 % 0 mm 436.0 W/m2 CLR
13:32 -14.1 °C -20.2 °C 34554.1 hPa NNE 89.3 km/h 89.3 km/h 45 % 0 mm 434.0 W/m2 CLR
13:37 -14.1 °C -20.2 °C 34544 hPa NNE 83.4 km/h 83.4 km/h 45 % 0 mm 429.0 W/m2 CLR
13:42 -14.1 °C -20.2 °C 34544 hPa North 89.3 km/h 89.3 km/h 45 % 0 mm 424.0 W/m2 CLR
13:47 -14.1 °C -20.4 °C 34544 hPa North 98.3 km/h 98.3 km/h 44 % 0 mm 422.0 W/m2 CLR
13:52 -13.8 °C -20.1 °C 34533.8 hPa NNW 68.6 km/h 68.6 km/h 44 % 0 mm 415.0 W/m2 CLR
13:57 -13.8 °C -20.1 °C 34544 hPa North 74.5 km/h 74.5 km/h 44 % 0 mm 408.0 W/m2 CLR
14:02 -13.8 °C -20.1 °C 34544 hPa NW 50.7 km/h 50.7 km/h 44 % 0 mm 401.0 W/m2 CLR
14:07 -13.8 °C -20.3 °C 34544 hPa NNW 71.5 km/h 71.5 km/h 43 % 0 mm 397.0 W/m2 CLR
14:12 -13.8 °C -20.3 °C 34533.8 hPa NNW 68.6 km/h 68.6 km/h 43 % 0 mm 392.0 W/m2 CLR
14:17 -13.4 °C -20.1 °C 34533.8 hPa NNW 77.7 km/h 77.7 km/h 43 % 0 mm 387.0 W/m2 CLR
14:22 -13.4 °C -20.1 °C 34533.8 hPa North 77.4 km/h 77.4 km/h 43 % 0 mm 378.0 W/m2 CLR
14:32 -13.4 °C -20.2 °C 34533.8 hPa NNW 68.6 km/h 68.6 km/h 42 % 0 mm 366.0 W/m2 CLR
14:43 -13.2 °C -20.7 °C 34533.8 hPa North 68.6 km/h 68.6 km/h 38 % 0 mm 350.0 W/m2 CLR
14:48 -13.2 °C -21.1 °C 34520.3 hPa NNW 72.6 km/h 72.6 km/h 36 % 0 mm 341.0 W/m2 CLR
14:58 -13.4 °C -20.2 °C 34520.3 hPa NW 80.5 km/h 80.5 km/h 42 % 0 mm 320.0 W/m2 CLR
15:03 -13.4 °C -19.8 °C 34520.3 hPa NNW 57 km/h 57 km/h 44 % 0 mm 311.0 W/m2 CLR
15:08 -13.4 °C -19.8 °C 34520.3 hPa NNW 50.7 km/h 50.7 km/h 44 % 0 mm 304.0 W/m2 CLR
15:18 -13.4 °C -19.8 °C 34510.1 hPa NNW 80.5 km/h 80.5 km/h 44 % 0 mm 287.0 W/m2 CLR
15:23 -13.8 °C -20.1 °C 34520.3 hPa North 77.4 km/h 77.4 km/h 44 % 0 mm 274.0 W/m2 CLR
15:28 -13.8 °C -19.9 °C 34510.1 hPa NW 68.6 km/h 68.6 km/h 45 % 0 mm 262.0 W/m2 CLR
15:48 -13.8 °C -19.8 °C 34520.3 hPa NNW 59.5 km/h 59.5 km/h 46 % 0 mm 207.0 W/m2 CLR
15:58 -14.1 °C -20.1 °C 34520.3 hPa North 68.6 km/h 68.6 km/h 46 % 0 mm 181.0 W/m2 CLR
16:13 -14.1 °C -20.1 °C 34510.1 hPa NNW 89.3 km/h 89.3 km/h 46 % 0 mm 137.0 W/m2 CLR
16:28 -14.4 °C -20.2 °C 34520.3 hPa NNW 65.5 km/h 65.5 km/h 47 % 0 mm 97.0 W/m2 CLR
16:33 -14.4 °C -20.2 °C 34520.3 hPa WNW 56.6 km/h 56.6 km/h 47 % 0 mm 86.0 W/m2 CLR
16:38 -14.4 °C -20.2 °C 34520.3 hPa WNW 69.8 km/h 69.8 km/h 47 % 0 mm 60.0 W/m2 SCT
16:43 -14.4 °C -20.2 °C 34520.3 hPa NW 59.5 km/h 59.5 km/h 47 % 0 mm 47.0 W/m2 SCT
16:48 -14.7 °C -20.3 °C 34520.3 hPa NW 46.7 km/h 46.7 km/h 48 % 0 mm 46.0 W/m2 SCT
16:53 -14.7 °C -20.5 °C 34520.3 hPa North 64.7 km/h 64.7 km/h 47 % 0 mm 39.0 W/m2 BKN
17:03 -14.7 °C -20.3 °C 34520.3 hPa NNW 38.8 km/h 38.8 km/h 48 % 0 mm 23.0 W/m2 BKN
17:08 -14.7 °C -20.3 °C 34520.3 hPa North 71.5 km/h 71.5 km/h 48 % 0 mm 18.0 W/m2 BKN
17:18 -15 °C -20.4 °C 34533.8 hPa NW 68.6 km/h 68.6 km/h 49 % 0 mm 12.0 W/m2 BKN
17:28 -15 °C -20.1 °C 34533.8 hPa NNW 65.5 km/h 65.5 km/h 52 % 0 mm 7.0 W/m2 BKN
17:38 -15.3 °C -20.2 °C 34533.8 hPa NNW 71.5 km/h 71.5 km/h 53 % 0 mm 0.0 W/m2 OVC
17:43 -15.3 °C -20.2 °C 34544 hPa NW 56.6 km/h 56.6 km/h 53 % 0 mm 0.0 W/m2 CLR
17:53 -15.3 °C -20.1 °C 34544 hPa NW 62.6 km/h 62.6 km/h 54 % 0 mm 0.0 W/m2 CLR
18:03 -15.6 °C -20.3 °C 34554.1 hPa NW 65.5 km/h 65.5 km/h 54 % 0 mm 0.0 W/m2 CLR
18:08 -15.6 °C -20.3 °C 34554.1 hPa NNW 47.6 km/h 47.6 km/h 54 % 0 mm 0.0 W/m2 CLR
18:14 -15.6 °C -20.3 °C 34554.1 hPa NNW 65.5 km/h 65.5 km/h 54 % 0 mm 0.0 W/m2 CLR
18:19 -15.6 °C -20.3 °C 34567.7 hPa NW 44.7 km/h 44.7 km/h 54 % 0 mm 0.0 W/m2 CLR
18:24 -15.6 °C -20.3 °C 34567.7 hPa NW 44.7 km/h 44.7 km/h 54 % 0 mm 0.0 W/m2 CLR
18:29 -15.6 °C -20.3 °C 34577.8 hPa NW 54.4 km/h 54.4 km/h 54 % 0 mm 0.0 W/m2 CLR
18:34 -15.6 °C -20.3 °C 34577.8 hPa NW 47.6 km/h 47.6 km/h 54 % 0 mm 0.0 W/m2 CLR
18:39 -15.6 °C -20.2 °C 34577.8 hPa NNW 68.6 km/h 68.6 km/h 55 % 0 mm 0.0 W/m2 CLR
18:44 -15.9 °C -20.4 °C 34577.8 hPa NNW 50.7 km/h 50.7 km/h 55 % 0 mm 0.0 W/m2 CLR
18:49 -15.9 °C -20.3 °C 34577.8 hPa NW 62.6 km/h 62.6 km/h 56 % 0 mm 0.0 W/m2 CLR
18:59 -15.9 °C -20.2 °C 34577.8 hPa NNW 50.7 km/h 50.7 km/h 57 % 0 mm 0.0 W/m2 CLR
19:04 -15.9 °C -20.1 °C 34591.4 hPa NNW 44.7 km/h 44.7 km/h 58 % 0 mm 0.0 W/m2 CLR
19:14 -15.9 °C -20.1 °C 34591.4 hPa NNW 65.5 km/h 65.5 km/h 58 % 0 mm 0.0 W/m2 CLR
19:19 -15.9 °C -19.9 °C 34601.5 hPa NNW 62.6 km/h 62.6 km/h 59 % 0 mm 0.0 W/m2 CLR
19:24 -16.2 °C -20.2 °C 34611.7 hPa NNW 50.7 km/h 50.7 km/h 59 % 0 mm 0.0 W/m2 CLR
19:29 -16.2 °C -20.2 °C 34611.7 hPa North 69.8 km/h 69.8 km/h 59 % 0 mm 0.0 W/m2 CLR
19:39 -16.2 °C -20.1 °C 34611.7 hPa NW 50.7 km/h 50.7 km/h 60 % 0 mm 0.0 W/m2 CLR
19:44 -16.2 °C -20.1 °C 34611.7 hPa North 65.5 km/h 65.5 km/h 60 % 0 mm 0.0 W/m2 CLR
19:49 -16.2 °C -20.1 °C 34625.2 hPa NNW 53.6 km/h 53.6 km/h 60 % 0 mm 0.0 W/m2 CLR
19:54 -16.2 °C -20.1 °C 34625.2 hPa NW 59.5 km/h 59.5 km/h 60 % 0 mm 0.0 W/m2 CLR
19:59 -16.2 °C -20.1 °C 34625.2 hPa NNW 47.6 km/h 47.6 km/h 60 % 0 mm 0.0 W/m2 CLR
20:04 -16.2 °C -20.1 °C 34635.4 hPa NNW 44.7 km/h 44.7 km/h 60 % 0 mm 0.0 W/m2 CLR
20:09 -16.2 °C -20.1 °C 34635.4 hPa North 53.6 km/h 53.6 km/h 60 % 0 mm 0.0 W/m2 CLR
20:14 -16.2 °C -20.1 °C 34635.4 hPa NNW 53.6 km/h 53.6 km/h 60 % 0 mm 0.0 W/m2 CLR
20:24 -16.6 °C -20.6 °C 34645.6 hPa NNW 47.6 km/h 47.6 km/h 59 % 0 mm 0.0 W/m2 CLR
20:34 -16.6 °C -20.6 °C 34645.6 hPa North 41.7 km/h 41.7 km/h 59 % 0 mm 0.0 W/m2 CLR
20:39 -16.2 °C -20.4 °C 34645.6 hPa NNW 83.4 km/h 83.4 km/h 58 % 0 mm 0.0 W/m2 CLR
20:44 -16.2 °C -20.5 °C 34659.1 hPa NNW 56.6 km/h 56.6 km/h 57 % 0 mm 0.0 W/m2 CLR
20:49 -16.2 °C -20.5 °C 34659.1 hPa NNW 50.7 km/h 50.7 km/h 57 % 0 mm 0.0 W/m2 CLR
20:54 -16.6 °C -20.8 °C 34659.1 hPa NNW 53.6 km/h 53.6 km/h 57 % 0 mm 0.0 W/m2 CLR
20:59 -16.6 °C -20.8 °C 34659.1 hPa NNW 50.7 km/h 50.7 km/h 57 % 0 mm 0.0 W/m2 CLR
21:04 -16.6 °C -20.8 °C 34659.1 hPa NNW 50.7 km/h 50.7 km/h 57 % 0 mm 0.0 W/m2 CLR
21:14 -16.6 °C -20.7 °C 34659.1 hPa North 65.5 km/h 65.5 km/h 58 % 0 mm 0.0 W/m2 CLR
21:19 -16.6 °C -20.7 °C 34659.1 hPa NNW 53.6 km/h 53.6 km/h 58 % 0 mm 0.0 W/m2 CLR
21:24 -16.6 °C -20.7 °C 34659.1 hPa NNW 53.6 km/h 53.6 km/h 58 % 0 mm 0.0 W/m2 CLR
21:29 -16.6 °C -20.7 °C 34659.1 hPa NNW 38.8 km/h 38.8 km/h 58 % 0 mm 0.0 W/m2 CLR
21:49 -16.8 °C -20.7 °C 34669.3 hPa NNW 50.7 km/h 50.7 km/h 60 % 0 mm 0.0 W/m2 CLR
21:54 -16.8 °C -20.6 °C 34669.3 hPa NNW 68.6 km/h 68.6 km/h 61 % 0 mm 0.0 W/m2 CLR
22:04 -16.8 °C -20.4 °C 34669.3 hPa NNW 77.4 km/h 77.4 km/h 62 % 0 mm 0.0 W/m2 CLR
22:09 -16.8 °C -20.4 °C 34669.3 hPa North 53.6 km/h 53.6 km/h 62 % 0 mm 0.0 W/m2 CLR
22:14 -16.8 °C -20.3 °C 34682.8 hPa NNW 53.6 km/h 53.6 km/h 63 % 0 mm 0.0 W/m2 CLR
22:19 -16.8 °C -20.2 °C 34682.8 hPa NNW 56.6 km/h 56.6 km/h 64 % 0 mm 0.0 W/m2 CLR
22:24 -16.8 °C -20.2 °C 34682.8 hPa North 54.4 km/h 54.4 km/h 64 % 0 mm 0.0 W/m2 CLR
22:29 -16.8 °C -20.1 °C 34682.8 hPa NNW 56.6 km/h 56.6 km/h 65 % 0 mm 0.0 W/m2 CLR
22:34 -16.8 °C -20.1 °C 34682.8 hPa NNW 53.6 km/h 53.6 km/h 65 % 0 mm 0.0 W/m2 CLR
22:44 -16.8 °C -20.1 °C 34682.8 hPa NNW 56.6 km/h 56.6 km/h 65 % 0 mm 0.0 W/m2 CLR
22:49 -16.8 °C -20 °C 34682.8 hPa NW 38.8 km/h 38.8 km/h 66 % 0 mm 0.0 W/m2 CLR
22:59 -16.8 °C -20 °C 34682.8 hPa NNW 56.6 km/h 56.6 km/h 66 % 0 mm 0.0 W/m2 CLR
23:19 -16.8 °C -20 °C 34682.8 hPa NW 65.5 km/h 65.5 km/h 66 % 0 mm 0.0 W/m2 CLR
23:34 -16.8 °C -20 °C 34693 hPa NW 44.7 km/h 44.7 km/h 66 % 0 mm 0.0 W/m2 CLR
23:39 -16.8 °C -20 °C 34703.1 hPa NW 38.8 km/h 38.8 km/h 66 % 0 mm 0.0 W/m2 CLR
23:44 -16.8 °C -20 °C 34703.1 hPa NW 41.7 km/h 41.7 km/h 66 % 0 mm 0.0 W/m2 CLR
23:49 -17.2 °C -20.3 °C 34716.7 hPa NW 41.7 km/h 41.7 km/h 66 % 0 mm 0.0 W/m2 CLR
23:59 -17.2 °C -20.3 °C 34716.7 hPa NW 47.6 km/h 47.6 km/h 66 % 0 mm 0.0 W/m2 CLR
Lo Temps de Massalio
Compliments of Weather Underground - 1 mb